Terminal Aerodrome Forecast
Issued by NWS

Current Version | Previous Version | Text Only | Print | Product List | Glossary On
Versions: 1 2 3 4 5 6 7 8 9 10 11 12 13 14 15 16 17 18 19 20 21 22 23 24 25 26 27 28 29 30 31 32 33 34 35 36 37 38 39
000
FTUS42 KRAH 270328 AAA
TAFRWI
TAF AMD
KRWI 270328Z 2703/2724 17007KT P6SM SCT015 BKN070
      TEMPO 2703/2707 BKN015
     FM270900 17004KT 4SM BR SCT009 BKN020
      TEMPO 2709/2713 2SM BR BKN007
     FM271330 20006KT 6SM BR BKN020
     FM271600 20008KT P6SM BKN040=

USA.gov is the U.S. government's official web portal to all federal, state and local government web resources and services.